Time;durP1;ratioP1;P1;durP2;ratioP2;P2;SDS_P1;SDS_P2;PMS_P1;PMS_P2;Temp;Humidity;BMP_temperature;BMP_pressure;BME280_temperature;BME280_humidity;BME280_pressure;Samples;Min_cycle;Max_cycle;Signal;HPM_P1;HPM_P2
2021/05/20 00:00:23;;;;;;;5.87;2.10;;;10.40;99.90;;;;;;5072645;28;20223;-71
2021/05/20 00:02:49;;;;;;;2.60;1.53;;;10.40;99.90;;;;;;5072807;28;20260;-71
2021/05/20 00:05:16;;;;;;;2.00;1.43;;;10.40;99.90;;;;;;5072084;28;20207;-71
2021/05/20 00:07:44;;;;;;;3.27;1.53;;;10.40;99.90;;;;;;5072177;28;20202;-71
2021/05/20 00:10:11;;;;;;;2.77;1.77;;;10.30;99.90;;;;;;5071602;28;20259;-71
2021/05/20 00:12:38;;;;;;;1.30;1.17;;;10.20;99.90;;;;;;5071626;28;20203;-71
2021/05/20 00:15:07;;;;;;;2.40;1.30;;;10.20;99.90;;;;;;5071738;28;20209;-71
2021/05/20 00:17:34;;;;;;;2.40;1.97;;;10.10;99.90;;;;;;5071845;28;20241;-70
2021/05/20 00:20:01;;;;;;;6.17;2.00;;;10.10;99.90;;;;;;5071644;28;20213;-71
2021/05/20 00:22:29;;;;;;;2.07;1.27;;;10.10;99.90;;;;;;5071527;28;20206;-71
2021/05/20 00:24:56;;;;;;;4.57;1.53;;;10.10;99.90;;;;;;5071289;28;20225;-71
2021/05/20 00:27:22;;;;;;;1.73;1.10;;;10.10;99.90;;;;;;5071913;28;20264;-72
2021/05/20 00:29:49;;;;;;;4.40;1.63;;;10.20;99.90;;;;;;5071954;28;20209;-71
2021/05/20 00:32:16;;;;;;;1.67;1.50;;;10.20;99.90;;;;;;5068641;28;20213;-72
2021/05/20 00:34:44;;;;;;;4.50;1.67;;;10.20;99.90;;;;;;5082391;28;20255;-71
2021/05/20 00:37:10;;;;;;;1.73;0.90;;;10.20;99.90;;;;;;5091315;28;20224;-71
2021/05/20 00:39:37;;;;;;;4.60;1.57;;;10.20;99.90;;;;;;5091355;28;20669;-71
2021/05/20 00:42:07;;;;;;;4.87;1.27;;;10.10;99.90;;;;;;5091382;28;20205;-71
2021/05/20 00:44:46;;;;;;;2.57;1.20;;;10.10;99.90;;;;;;5091595;28;20202;-71
2021/05/20 00:47:12;;;;;;;1.47;1.00;;;10.00;99.90;;;;;;5091165;28;20644;-71
2021/05/20 00:49:39;;;;;;;3.93;1.23;;;10.00;99.90;;;;;;5091019;28;20593;-71
2021/05/20 00:52:06;;;;;;;3.60;1.40;;;9.90;99.90;;;;;;5091430;28;20213;-71
2021/05/20 00:54:33;;;;;;;4.80;1.17;;;9.90;99.90;;;;;;5091229;28;20205;-71
2021/05/20 00:56:59;;;;;;;3.13;1.37;;;9.90;99.90;;;;;;5090911;28;20212;-71
2021/05/20 00:59:26;;;;;;;1.60;1.00;;;10.00;99.90;;;;;;5091553;28;20205;-71
2021/05/20 01:01:52;;;;;;;4.33;1.43;;;9.90;99.90;;;;;;5091310;28;20218;-71
2021/05/20 01:04:19;;;;;;;3.40;1.30;;;10.00;99.90;;;;;;5091667;28;20258;-71
2021/05/20 01:06:45;;;;;;;6.50;2.07;;;9.90;99.90;;;;;;5091127;28;20202;-71
2021/05/20 01:09:13;;;;;;;2.20;1.30;;;9.80;99.90;;;;;;5090708;28;20703;-72
2021/05/20 01:11:40;;;;;;;5.60;1.27;;;9.80;99.90;;;;;;5091160;28;20209;-71
2021/05/20 01:14:11;;;;;;;2.87;1.10;;;9.80;99.90;;;;;;5090549;28;20237;-70
2021/05/20 01:16:38;;;;;;;3.53;1.20;;;9.70;99.90;;;;;;5090895;28;20288;-69
2021/05/20 01:19:05;;;;;;;3.00;1.30;;;9.80;99.90;;;;;;5090594;28;20294;-70
2021/05/20 01:21:33;;;;;;;3.60;1.70;;;9.80;99.90;;;;;;5091359;28;20666;-71
2021/05/20 01:24:00;;;;;;;2.43;1.23;;;9.80;99.90;;;;;;5090393;28;20244;-70
2021/05/20 01:26:28;;;;;;;6.93;2.10;;;9.70;99.90;;;;;;5091064;28;20235;-70
2021/05/20 01:28:55;;;;;;;1.70;1.60;;;9.70;99.90;;;;;;5090659;28;20596;-71
2021/05/20 01:31:21;;;;;;;1.73;1.30;;;9.70;99.90;;;;;;5091139;28;20206;-70
2021/05/20 01:33:48;;;;;;;5.40;2.00;;;9.70;99.90;;;;;;5091061;28;20262;-70
2021/05/20 01:36:23;;;;;;;5.47;1.53;;;9.70;99.90;;;;;;5090078;28;20205;-70
2021/05/20 01:38:51;;;;;;;2.77;2.27;;;9.60;99.90;;;;;;5090614;28;20708;-70
2021/05/20 01:41:18;;;;;;;4.23;1.80;;;9.60;99.90;;;;;;5090175;28;20683;-70
2021/05/20 01:43:44;;;;;;;6.70;2.33;;;9.60;99.90;;;;;;5090672;28;20208;-71
2021/05/20 01:46:11;;;;;;;4.10;2.20;;;9.60;99.90;;;;;;5090021;28;20582;-70
2021/05/20 01:48:39;;;;;;;1.87;1.67;;;9.70;99.90;;;;;;5090803;28;20240;-71
2021/05/20 01:51:08;;;;;;;3.13;2.00;;;9.60;99.90;;;;;;5089938;28;20687;-70
2021/05/20 01:53:36;;;;;;;4.50;2.00;;;9.60;99.90;;;;;;5090508;28;20201;-70
2021/05/20 01:56:05;;;;;;;3.33;1.77;;;9.40;99.90;;;;;;5090361;28;20208;-70
2021/05/20 01:58:31;;;;;;;4.30;2.10;;;9.50;99.90;;;;;;5090230;28;20225;-71
2021/05/20 02:00:58;;;;;;;8.17;2.20;;;9.50;99.90;;;;;;5090399;28;20201;-71
2021/05/20 02:03:25;;;;;;;6.07;2.70;;;9.40;99.90;;;;;;5090373;28;20251;-71
2021/05/20 02:05:52;;;;;;;3.73;2.50;;;9.40;99.90;;;;;;5091007;28;20210;-71
2021/05/20 02:08:18;;;;;;;6.37;2.23;;;9.40;99.90;;;;;;5090278;28;20704;-71
2021/05/20 02:10:45;;;;;;;4.93;2.17;;;9.50;99.90;;;;;;5090358;28;20209;-71
2021/05/20 02:13:13;;;;;;;3.63;2.60;;;9.50;99.90;;;;;;5089799;28;21054;-71
2021/05/20 02:15:39;;;;;;;4.00;1.70;;;9.40;99.90;;;;;;5094031;28;20605;-70
2021/05/20 02:18:06;;;;;;;3.80;1.53;;;9.40;99.90;;;;;;5094268;28;20239;-70
2021/05/20 02:20:33;;;;;;;5.10;1.97;;;9.40;99.90;;;;;;5094377;28;20208;-71
2021/05/20 02:23:00;;;;;;;4.80;1.80;;;9.30;99.90;;;;;;5094010;28;20212;-70
2021/05/20 02:25:27;;;;;;;2.30;1.80;;;9.30;99.90;;;;;;5093912;28;20236;-70
2021/05/20 02:27:53;;;;;;;3.23;1.73;;;9.30;99.90;;;;;;5094015;28;20742;-70
2021/05/20 02:30:21;;;;;;;3.70;1.80;;;9.30;99.90;;;;;;5094522;28;20201;-70
2021/05/20 02:32:48;;;;;;;3.90;1.80;;;9.30;99.90;;;;;;5094815;28;20588;-70
2021/05/20 02:35:14;;;;;;;2.57;2.03;;;9.20;99.90;;;;;;5094025;28;20228;-70
2021/05/20 02:37:42;;;;;;;3.63;1.90;;;9.20;99.90;;;;;;5094007;28;20252;-70
2021/05/20 02:40:10;;;;;;;4.00;1.90;;;9.30;99.90;;;;;;5093570;28;20669;-71
2021/05/20 02:42:37;;;;;;;3.40;2.20;;;9.20;99.90;;;;;;5093922;28;20232;-70
2021/05/20 02:45:06;;;;;;;4.60;1.53;;;9.20;99.90;;;;;;5093938;28;20213;-71
2021/05/20 02:47:34;;;;;;;3.43;1.20;;;9.10;99.90;;;;;;5094285;28;20339;-70
2021/05/20 02:50:00;;;;;;;3.67;1.53;;;9.20;99.90;;;;;;5092959;28;20680;-71
2021/05/20 02:52:29;;;;;;;2.33;1.80;;;9.10;99.90;;;;;;5093622;28;20676;-71
2021/05/20 02:54:55;;;;;;;4.40;1.97;;;9.00;99.90;;;;;;5093472;28;20270;-71
2021/05/20 02:57:22;;;;;;;3.73;2.00;;;9.00;99.90;;;;;;5093914;28;20209;-71
2021/05/20 02:59:48;;;;;;;4.43;2.10;;;9.00;99.90;;;;;;5094062;28;20205;-71
2021/05/20 03:02:15;;;;;;;2.77;1.80;;;9.00;99.90;;;;;;5093529;28;20214;-71
2021/05/20 03:04:42;;;;;;;5.10;2.03;;;9.00;99.90;;;;;;5093464;28;20652;-70
2021/05/20 03:07:09;;;;;;;5.27;2.10;;;8.90;99.90;;;;;;5093272;28;20208;-71
2021/05/20 03:09:35;;;;;;;6.50;2.00;;;9.00;99.90;;;;;;5093817;28;20577;-72
2021/05/20 03:12:02;;;;;;;3.77;2.50;;;9.10;99.90;;;;;;5093087;28;20279;-71
2021/05/20 03:14:28;;;;;;;4.57;2.27;;;8.90;99.90;;;;;;5093485;28;20247;-70
2021/05/20 03:16:55;;;;;;;3.67;1.97;;;9.00;99.90;;;;;;5093037;28;20212;-70
2021/05/20 03:19:21;;;;;;;4.10;2.00;;;9.00;99.90;;;;;;5093118;28;20241;-71
2021/05/20 03:21:49;;;;;;;11.87;2.50;;;8.80;99.90;;;;;;5093457;28;20213;-71
2021/05/20 03:24:16;;;;;;;17.03;2.60;;;8.90;99.90;;;;;;5093026;28;20708;-70
2021/05/20 03:26:43;;;;;;;5.63;2.43;;;9.00;99.90;;;;;;5091867;28;20209;-71
2021/05/20 03:29:09;;;;;;;4.30;3.33;;;8.90;99.90;;;;;;5092699;28;20206;-69
2021/05/20 03:31:36;;;;;;;6.43;2.70;;;8.90;99.90;;;;;;5093122;28;20217;-70
2021/05/20 03:34:03;;;;;;;3.90;2.43;;;8.90;99.90;;;;;;5092545;28;20293;-70
2021/05/20 03:36:29;;;;;;;5.10;2.10;;;9.00;99.90;;;;;;5085640;28;20218;-71
2021/05/20 03:38:57;;;;;;;2.40;2.20;;;8.90;99.90;;;;;;5078497;28;20634;-71
2021/05/20 03:41:23;;;;;;;3.53;2.27;;;8.90;99.90;;;;;;5092913;28;20202;-72
2021/05/20 03:43:49;;;;;;;5.17;2.70;;;8.90;99.90;;;;;;5084568;28;20284;-72
2021/05/20 03:46:16;;;;;;;6.57;2.27;;;8.70;99.90;;;;;;5092674;28;20205;-71
2021/05/20 03:48:42;;;;;;;3.60;1.80;;;8.70;99.90;;;;;;5092501;28;20246;-71
2021/05/20 03:51:10;;;;;;;2.43;1.93;;;8.60;99.90;;;;;;5092422;28;20205;-71
2021/05/20 03:53:37;;;;;;;3.00;2.10;;;8.50;99.90;;;;;;5093073;28;20205;-72
2021/05/20 03:56:05;;;;;;;1.87;1.70;;;8.60;99.90;;;;;;5085464;28;20255;-71
2021/05/20 03:58:32;;;;;;;4.00;2.40;;;8.70;99.90;;;;;;5092697;28;20221;-70
2021/05/20 04:00:58;;;;;;;8.70;2.43;;;8.60;99.90;;;;;;5092340;28;20237;-71
2021/05/20 04:03:25;;;;;;;5.93;2.20;;;8.60;99.90;;;;;;5092202;28;20209;-73
2021/05/20 04:05:53;;;;;;;4.97;2.60;;;8.60;99.90;;;;;;5092871;28;20581;-73
2021/05/20 04:08:20;;;;;;;7.33;2.43;;;8.70;99.90;;;;;;5092553;28;20716;-73
2021/05/20 04:10:47;;;;;;;4.37;2.90;;;8.60;99.90;;;;;;5092926;28;20210;-73
2021/05/20 04:13:26;;;;;;;7.57;3.23;;;8.50;99.90;;;;;;5091887;28;20210;-72
2021/05/20 04:15:53;;;;;;;6.50;3.23;;;8.40;99.90;;;;;;5092048;28;20201;-71
2021/05/20 04:18:20;;;;;;;2.50;2.20;;;8.60;99.90;;;;;;5092142;28;20232;-71
2021/05/20 04:20:47;;;;;;;6.10;2.60;;;8.60;99.90;;;;;;5092992;28;20205;-70
2021/05/20 04:23:13;;;;;;;3.87;2.30;;;8.40;99.90;;;;;;5092070;28;20209;-70
2021/05/20 04:25:40;;;;;;;7.60;2.63;;;8.30;99.90;;;;;;5091974;28;20205;-71
2021/05/20 04:28:06;;;;;;;4.20;2.70;;;8.40;99.90;;;;;;5091921;28;20259;-71
2021/05/20 04:30:36;;;;;;;4.37;2.53;;;8.50;99.90;;;;;;5088231;28;20198;-72
2021/05/20 04:33:03;;;;;;;4.03;2.23;;;8.70;99.90;;;;;;5081080;28;20600;-71
2021/05/20 04:35:30;;;;;;;7.10;2.77;;;8.80;99.90;;;;;;5091917;28;20210;-70
2021/05/20 04:37:56;;;;;;;2.57;2.17;;;8.80;99.90;;;;;;5090972;28;20229;-70
2021/05/20 04:40:23;;;;;;;3.57;2.57;;;8.90;99.90;;;;;;5091849;28;20633;-71
2021/05/20 04:42:49;;;;;;;5.40;3.77;;;8.90;99.90;;;;;;5092001;28;20205;-70
2021/05/20 04:45:16;;;;;;;5.90;2.03;;;8.90;99.90;;;;;;5091360;28;20213;-70
2021/05/20 04:47:44;;;;;;;6.70;2.60;;;8.90;99.90;;;;;;5091442;28;20216;-70
2021/05/20 04:50:12;;;;;;;3.37;2.13;;;9.00;99.90;;;;;;5091441;28;20300;-70
2021/05/20 04:52:39;;;;;;;7.10;2.40;;;9.10;99.90;;;;;;5091925;28;20205;-70
2021/05/20 04:55:06;;;;;;;5.10;2.30;;;9.10;99.90;;;;;;5090927;28;20205;-71
2021/05/20 04:57:33;;;;;;;2.73;1.70;;;9.30;99.90;;;;;;5091548;28;20210;-70
2021/05/20 05:00:00;;;;;;;5.80;2.30;;;9.30;99.90;;;;;;5090701;28;20202;-71
2021/05/20 05:02:26;;;;;;;4.83;2.00;;;9.20;99.90;;;;;;5091231;28;20205;-71
2021/05/20 05:04:54;;;;;;;3.67;2.27;;;9.40;99.90;;;;;;5091126;28;20213;-71
2021/05/20 05:07:20;;;;;;;5.43;1.90;;;9.50;99.90;;;;;;5091904;28;20209;-71
2021/05/20 05:09:47;;;;;;;7.87;3.00;;;9.60;99.90;;;;;;5091669;28;20205;-70
2021/05/20 05:12:13;;;;;;;9.57;2.93;;;9.60;99.90;;;;;;5090708;28;20796;-71
2021/05/20 05:14:40;;;;;;;9.53;2.77;;;9.60;99.90;;;;;;5091508;28;20327;-71
2021/05/20 05:17:07;;;;;;;2.93;2.20;;;9.80;99.90;;;;;;5090244;28;20202;-71
2021/05/20 05:19:33;;;;;;;4.73;2.20;;;10.00;99.90;;;;;;5091266;28;20279;-70
2021/05/20 05:22:02;;;;;;;5.27;3.07;;;10.10;99.90;;;;;;5090774;28;20209;-71
2021/05/20 05:24:29;;;;;;;5.30;2.10;;;10.30;99.90;;;;;;5091033;28;20221;-70
2021/05/20 05:26:55;;;;;;;5.27;2.50;;;10.30;99.90;;;;;;5090532;28;20205;-71
2021/05/20 05:29:22;;;;;;;6.40;2.77;;;10.40;99.90;;;;;;5091223;28;20205;-71
2021/05/20 05:31:49;;;;;;;7.57;2.50;;;10.50;99.90;;;;;;5077532;28;20206;-71
2021/05/20 05:34:16;;;;;;;7.30;3.10;;;10.70;99.90;;;;;;5090368;28;20676;-71
2021/05/20 05:36:43;;;;;;;6.73;2.53;;;10.70;99.90;;;;;;5090910;28;20209;-71
2021/05/20 05:39:10;;;;;;;6.93;2.53;;;10.80;99.90;;;;;;5090323;28;20278;-71
2021/05/20 05:41:37;;;;;;;6.57;2.43;;;10.90;99.90;;;;;;5090955;28;20208;-71
2021/05/20 05:44:04;;;;;;;8.53;2.87;;;11.00;99.90;;;;;;5090314;28;20263;-72
2021/05/20 05:46:31;;;;;;;3.00;2.10;;;10.90;99.90;;;;;;5090482;28;20661;-72
2021/05/20 05:49:00;;;;;;;4.73;2.80;;;11.00;99.90;;;;;;5089893;28;20206;-72
2021/05/20 05:51:28;;;;;;;10.33;3.43;;;11.10;99.90;;;;;;5090393;28;20225;-72
2021/05/20 05:53:55;;;;;;;6.17;2.53;;;11.20;99.90;;;;;;5090029;28;20214;-73
2021/05/20 05:56:22;;;;;;;10.57;2.87;;;11.30;99.90;;;;;;5090909;28;20201;-73
2021/05/20 05:58:49;;;;;;;3.10;2.50;;;11.40;99.90;;;;;;5090702;28;20704;-72
2021/05/20 06:01:16;;;;;;;7.97;3.50;;;11.40;99.90;;;;;;5089939;28;20232;-72
2021/05/20 06:03:43;;;;;;;5.17;2.83;;;11.50;99.90;;;;;;5090754;28;20205;-72
2021/05/20 06:06:11;;;;;;;9.53;6.73;;;11.50;99.90;;;;;;5089907;28;20209;-71
2021/05/20 06:08:37;;;;;;;12.47;3.90;;;11.50;99.90;;;;;;5089006;28;20212;-71
2021/05/20 06:11:04;;;;;;;5.17;3.17;;;11.60;99.90;;;;;;5089667;28;20211;-71
2021/05/20 06:13:31;;;;;;;6.87;2.70;;;11.70;99.90;;;;;;5090124;28;20657;-71
2021/05/20 06:15:58;;;;;;;5.80;2.90;;;11.70;99.90;;;;;;5090023;28;20284;-72
2021/05/20 06:18:24;;;;;;;5.63;2.77;;;11.90;99.90;;;;;;5090195;28;20227;-72
2021/05/20 06:20:51;;;;;;;7.27;2.90;;;11.90;99.90;;;;;;5090652;28;20280;-72
2021/05/20 06:23:17;;;;;;;5.93;3.40;;;12.10;99.90;;;;;;5090462;28;20205;-71
2021/05/20 06:25:45;;;;;;;8.33;3.43;;;12.20;99.90;;;;;;5090035;28;20209;-72
2021/05/20 06:28:12;;;;;;;6.23;2.67;;;12.20;99.90;;;;;;5090031;28;20205;-71
2021/05/20 06:30:39;;;;;;;6.90;3.33;;;12.40;99.90;;;;;;5090111;28;20205;-71
2021/05/20 06:33:05;;;;;;;10.37;4.33;;;12.50;99.90;;;;;;5090014;28;20205;-72
2021/05/20 06:35:32;;;;;;;10.90;3.60;;;12.40;99.90;;;;;;5089725;28;20617;-71
2021/05/20 06:37:59;;;;;;;7.93;3.57;;;12.40;99.90;;;;;;5089699;28;20716;-71
2021/05/20 06:40:25;;;;;;;4.83;2.53;;;12.30;99.90;;;;;;5090211;28;20213;-71
2021/05/20 06:42:52;;;;;;;4.37;3.13;;;12.40;99.90;;;;;;5089922;28;20206;-72
2021/05/20 06:45:18;;;;;;;4.53;3.40;;;12.50;99.90;;;;;;5090374;28;20232;-71
2021/05/20 06:47:46;;;;;;;8.90;3.30;;;12.50;99.90;;;;;;5089926;28;20220;-72
2021/05/20 06:50:12;;;;;;;7.10;4.10;;;12.60;99.90;;;;;;5089826;28;20209;-72
2021/05/20 06:52:39;;;;;;;5.60;3.50;;;12.60;99.90;;;;;;5090318;28;20225;-72
2021/05/20 06:55:06;;;;;;;7.43;3.90;;;12.50;99.90;;;;;;5089402;28;20206;-71
2021/05/20 07:00:16;;;;;;;6.30;3.00;;;12.80;99.90;;;;;;5090591;28;20636;-72
2021/05/20 07:02:42;;;;;;;6.73;3.03;;;13.00;99.90;;;;;;5093499;28;20258;-71
2021/05/20 07:05:10;;;;;;;12.47;3.33;;;13.00;99.90;;;;;;5093030;28;20198;-72
2021/05/20 07:07:38;;;;;;;3.57;3.23;;;13.10;99.90;;;;;;5093908;28;20213;-72
2021/05/20 07:10:06;;;;;;;4.80;2.70;;;12.90;99.90;;;;;;5093128;28;20318;-73
2021/05/20 07:12:32;;;;;;;6.20;2.20;;;13.00;99.90;;;;;;5093479;28;20208;-72
2021/05/20 07:15:01;;;;;;;5.30;2.60;;;13.00;99.90;;;;;;5092784;28;20208;-72
2021/05/20 07:17:29;;;;;;;8.10;2.03;;;13.50;99.90;;;;;;5093512;28;20289;-72
2021/05/20 07:19:55;;;;;;;5.53;2.50;;;13.20;99.90;;;;;;5093202;28;20237;-72
2021/05/20 07:22:23;;;;;;;3.60;1.67;;;13.40;99.90;;;;;;5093727;28;20201;-72
2021/05/20 07:24:49;;;;;;;4.10;1.43;;;13.30;99.90;;;;;;5093575;28;20209;-72
2021/05/20 07:27:16;;;;;;;5.07;1.73;;;13.10;99.90;;;;;;5092370;28;20212;-73
2021/05/20 07:29:42;;;;;;;3.37;1.07;;;13.30;99.90;;;;;;5093348;28;20205;-71
2021/05/20 07:32:10;;;;;;;8.13;2.00;;;13.40;99.90;;;;;;5092500;28;20210;-72
2021/05/20 07:34:38;;;;;;;4.77;1.80;;;13.60;99.90;;;;;;5093299;28;20197;-73
2021/05/20 07:37:06;;;;;;;4.47;2.20;;;13.90;99.90;;;;;;5092753;28;20206;-71
2021/05/20 07:39:33;;;;;;;5.80;2.15;;;14.20;99.90;;;;;;5086999;28;20238;-73
2021/05/20 07:42:00;;;;;;;7.97;2.05;;;14.60;99.90;;;;;;5076736;28;20317;-74
2021/05/20 07:44:26;;;;;;;3.38;2.10;;;15.00;99.90;;;;;;5088198;28;20669;-74
2021/05/20 07:46:54;;;;;;;4.03;1.92;;;14.80;99.90;;;;;;5087420;28;20223;-73
2021/05/20 07:49:21;;;;;;;7.78;2.15;;;14.80;99.90;;;;;;5093083;28;20255;-72
2021/05/20 07:51:47;;;;;;;6.53;2.58;;;14.90;99.90;;;;;;5093294;28;20209;-74
2021/05/20 07:54:13;;;;;;;8.43;2.08;;;15.10;99.90;;;;;;5092359;28;20539;-75
2021/05/20 07:56:43;;;;;;;3.85;1.75;;;15.50;99.90;;;;;;5092348;28;20591;-73
2021/05/20 07:59:10;;;;;;;6.57;1.70;;;17.90;99.90;;;;;;5092148;28;20230;-75
2021/05/20 08:01:38;;;;;;;6.40;1.77;;;19.40;99.90;;;;;;5092173;28;20202;-73
2021/05/20 08:04:08;;;;;;;4.85;1.73;;;18.90;99.90;;;;;;5092303;28;20225;-74
2021/05/20 08:06:39;;;;;;;8.93;2.40;;;18.80;99.90;;;;;;5092517;28;20213;-73
2021/05/20 08:09:14;;;;;;;3.15;1.35;;;20.60;99.90;;;;;;5091834;28;20213;-74
2021/05/20 08:11:41;;;;;;;4.32;1.73;;;22.30;99.90;;;;;;5091717;28;20201;-73
2021/05/20 08:14:08;;;;;;;4.65;1.60;;;22.20;99.90;;;;;;5092121;28;20206;-73
2021/05/20 08:16:34;;;;;;;3.13;1.10;;;19.00;99.90;;;;;;5092211;28;20659;-72
2021/05/20 08:19:00;;;;;;;3.97;1.25;;;17.80;99.90;;;;;;5091967;28;20233;-73
2021/05/20 08:21:28;;;;;;;4.20;1.50;;;17.00;99.90;;;;;;5092294;28;20208;-70
2021/05/20 08:23:54;;;;;;;8.77;2.25;;;16.80;99.90;;;;;;5091206;28;20567;-71
2021/05/20 08:26:24;;;;;;;2.30;1.38;;;16.50;99.90;;;;;;5092301;28;20659;-71
2021/05/20 08:28:52;;;;;;;6.85;1.55;;;16.10;99.90;;;;;;5092245;28;20204;-71
2021/05/20 08:31:19;;;;;;;5.10;1.48;;;16.20;99.90;;;;;;5092110;28;20205;-71
2021/05/20 08:33:45;;;;;;;1.95;0.95;;;16.40;99.90;;;;;;5092005;28;20209;-71
2021/05/20 08:36:12;;;;;;;4.82;1.13;;;16.80;99.90;;;;;;5075024;28;20782;-71
2021/05/20 08:38:38;;;;;;;4.68;1.75;;;17.10;99.90;;;;;;5091443;28;20229;-71
2021/05/20 08:41:05;;;;;;;3.15;1.48;;;17.60;99.90;;;;;;5091256;28;20213;-71
2021/05/20 08:43:32;;;;;;;3.90;1.80;;;18.40;99.90;;;;;;5091899;28;20209;-72
2021/05/20 08:45:59;;;;;;;2.47;1.42;;;18.30;99.90;;;;;;5091097;28;20216;-73
2021/05/20 08:48:26;;;;;;;3.70;1.35;;;17.90;99.90;;;;;;5091723;28;20665;-73
2021/05/20 08:50:53;;;;;;;2.97;1.58;;;18.00;99.90;;;;;;5091670;28;20681;-75
2021/05/20 08:53:19;;;;;;;4.65;1.25;;;18.80;99.90;;;;;;5091449;28;20569;-77
2021/05/20 08:55:46;;;;;;;2.47;1.10;;;19.90;99.90;;;;;;5091793;28;20209;-73
2021/05/20 08:58:12;;;;;;;4.25;1.40;;;20.30;99.90;;;;;;5091106;28;20225;-73
2021/05/20 09:00:40;;;;;;;3.60;1.45;;;19.90;99.90;;;;;;5091636;28;20208;-72
2021/05/20 09:03:10;;;;;;;7.50;1.80;;;20.50;99.90;;;;;;5091119;28;20587;-73
2021/05/20 09:05:37;;;;;;;6.57;1.95;;;19.20;99.90;;;;;;5091423;28;20197;-74
2021/05/20 09:08:08;;;;;;;3.92;1.60;;;20.00;99.90;;;;;;5090907;28;20216;-72
2021/05/20 09:10:36;;;;;;;7.00;1.63;;;20.90;99.90;;;;;;5080247;28;20205;-73
2021/05/20 09:13:04;;;;;;;2.70;1.67;;;21.60;99.90;;;;;;5090538;28;20688;-74
2021/05/20 09:15:33;;;;;;;1.63;1.10;;;20.30;99.90;;;;;;5091079;28;20202;-71
2021/05/20 09:18:11;;;;;;;4.38;1.33;;;20.10;99.90;;;;;;5090761;28;20263;-72
2021/05/20 09:20:38;;;;;;;1.70;1.00;;;20.60;99.90;;;;;;5085276;28;20204;-73
2021/05/20 09:23:07;;;;;;;1.88;1.73;;;19.90;99.90;;;;;;5069972;28;20207;-72
2021/05/20 09:25:36;;;;;;;3.85;1.52;;;19.70;99.90;;;;;;5071663;28;20233;-72
2021/05/20 09:28:04;;;;;;;3.72;1.67;;;20.00;99.90;;;;;;5078556;28;20209;-72
2021/05/20 09:30:31;;;;;;;3.00;1.20;;;19.90;99.90;;;;;;5090363;28;20703;-73
2021/05/20 09:32:59;;;;;;;4.32;1.23;;;20.50;99.90;;;;;;5079921;28;20250;-71
2021/05/20 09:35:29;;;;;;;3.28;1.73;;;20.20;99.90;;;;;;5090878;28;20233;-72
2021/05/20 09:38:02;;;;;;;3.60;1.30;;;20.30;99.90;;;;;;5090201;28;20210;-70
2021/05/20 09:40:31;;;;;;;4.07;1.13;;;20.40;99.90;;;;;;5090865;28;20205;-69
2021/05/20 09:42:58;;;;;;;3.97;1.15;;;20.50;99.90;;;;;;5087508;28;20585;-70
2021/05/20 09:45:27;;;;;;;1.98;0.90;;;21.50;99.90;;;;;;5080722;28;20205;-69
2021/05/20 09:48:03;;;;;;;1.55;0.85;;;19.80;99.90;;;;;;5090458;28;20217;-70
2021/05/20 09:50:37;;;;;;;2.72;1.30;;;18.80;99.90;;;;;;5089925;28;20204;-70
2021/05/20 09:53:08;;;;;;;1.73;1.05;;;19.60;99.90;;;;;;5089943;28;20636;-71
2021/05/20 09:55:35;;;;;;;2.50;1.65;;;20.00;99.90;;;;;;5090414;28;20248;-70
2021/05/20 09:58:08;;;;;;;3.67;1.27;;;20.80;99.90;;;;;;5090212;28;20227;-71
2021/05/20 10:00:36;;;;;;;3.20;1.42;;;23.00;99.90;;;;;;5090698;28;20300;-71
2021/05/20 10:03:04;;;;;;;3.05;1.25;;;21.70;99.90;;;;;;5090184;28;20275;-70
2021/05/20 10:05:33;;;;;;;3.92;1.02;;;21.50;99.90;;;;;;5078808;28;20206;-70
2021/05/20 10:08:03;;;;;;;4.25;1.23;;;22.40;99.90;;;;;;5072340;28;20209;-71
2021/05/20 10:10:30;;;;;;;3.85;1.45;;;21.90;99.90;;;;;;5076896;28;20202;-71
2021/05/20 10:12:56;;;;;;;2.65;1.75;;;23.50;99.90;;;;;;5083689;28;20216;-71
2021/05/20 10:15:24;;;;;;;3.28;1.00;;;23.30;99.90;;;;;;5088626;28;20197;-71
2021/05/20 10:17:52;;;;;;;1.80;1.27;;;24.40;99.90;;;;;;5089789;28;20618;-70
2021/05/20 10:20:23;;;;;;;1.52;1.23;;;24.40;99.90;;;;;;5089983;28;20652;-70
2021/05/20 10:22:51;;;;;;;5.30;1.58;;;24.80;99.90;;;;;;5090557;28;20209;-71
2021/05/20 10:25:18;;;;;;;3.05;1.42;;;24.20;99.90;;;;;;5090051;28;20220;-72
2021/05/20 10:27:45;;;;;;;3.10;1.30;;;25.20;99.90;;;;;;5090521;28;20202;-71
2021/05/20 10:30:14;;;;;;;5.22;1.80;;;26.80;99.90;;;;;;5089705;28;20300;-70
2021/05/20 10:32:43;;;;;;;1.92;1.00;;;25.80;99.90;;;;;;5090492;28;20206;-70
2021/05/20 10:35:11;;;;;;;2.55;1.65;;;20.80;99.90;;;;;;5090698;28;20213;-70
2021/05/20 10:37:39;;;;;;;1.10;0.93;;;19.90;99.90;;;;;;5094113;28;20205;-71
2021/05/20 10:40:28;;;;;;;1.35;0.80;;;20.00;99.90;;;;;;5094040;28;20237;-73
2021/05/20 10:43:11;;;;;;;3.58;1.80;;;19.80;99.90;;;;;;5093750;28;20216;-70
2021/05/20 10:45:38;;;;;;;4.38;0.90;;;20.20;99.90;;;;;;5094074;28;20258;-72
2021/05/20 10:48:23;;;;;;;1.50;0.85;;;20.10;99.90;;;;;;5093719;28;20201;-71
2021/05/20 10:51:13;;;;;;;1.75;1.50;;;20.10;99.90;;;;;;5093509;28;20614;-74
2021/05/20 10:53:51;;;;;;;2.42;0.80;;;19.80;99.90;;;;;;5094146;28;20206;-74
2021/05/20 10:56:56;;;;;;;1.98;0.80;;;20.30;99.90;;;;;;5093794;28;20227;-73
2021/05/20 10:59:40;;;;;;;4.18;0.70;;;20.30;99.90;;;;;;5093977;28;20232;-73
2021/05/20 11:02:31;;;;;;;1.83;0.77;;;20.30;99.90;;;;;;5093318;28;20209;-73
2021/05/20 11:04:57;;;;;;;1.10;0.88;;;19.90;99.90;;;;;;5086012;28;20206;-73
2021/05/20 11:07:32;;;;;;;4.18;1.10;;;20.20;99.90;;;;;;5093943;28;20201;-70
2021/05/20 11:10:10;;;;;;;0.88;0.70;;;20.30;99.90;;;;;;5091309;28;20232;-71
2021/05/20 11:12:56;;;;;;;2.97;1.00;;;20.40;99.90;;;;;;5080099;28;20673;-73
2021/05/20 11:15:23;;;;;;;2.58;1.17;;;20.20;99.90;;;;;;5092796;28;20661;-74
2021/05/20 11:17:50;;;;;;;3.60;1.15;;;20.40;99.90;;;;;;5093954;28;20213;-74
2021/05/20 11:20:41;;;;;;;2.30;1.00;;;20.80;99.90;;;;;;5092614;28;20244;-74
2021/05/20 11:23:28;;;;;;;1.42;1.10;;;20.50;99.90;;;;;;5092913;28;20213;-74
2021/05/20 11:26:10;;;;;;;1.98;1.35;;;20.70;99.90;;;;;;5092834;28;20221;-74
2021/05/20 11:28:43;;;;;;;1.55;0.98;;;20.60;99.90;;;;;;5093284;28;20208;-72
2021/05/20 11:31:10;;;;;;;1.88;1.25;;;20.40;99.90;;;;;;5092656;28;20699;-77
2021/05/20 11:33:46;;;;;;;2.38;1.08;;;20.60;99.90;;;;;;5093015;28;20323;-73
2021/05/20 11:36:13;;;;;;;0.90;0.80;;;20.60;99.90;;;;;;5092831;28;20242;-73
2021/05/20 11:38:58;;;;;;;3.92;1.13;;;20.30;99.90;;;;;;5093027;28;20241;-73
2021/05/20 11:41:26;;;;;;;3.63;1.15;;;20.30;99.90;;;;;;5092911;28;20226;-73
2021/05/20 11:44:12;;;;;;;0.77;0.70;;;20.40;99.90;;;;;;5092961;28;20206;-73
2021/05/20 11:46:40;;;;;;;3.85;1.27;;;20.60;99.90;;;;;;5091698;28;20611;-74
2021/05/20 11:49:18;;;;;;;2.50;1.05;;;20.50;99.90;;;;;;5092710;28;20595;-76
2021/05/20 11:51:51;;;;;;;0.80;0.80;;;20.70;99.90;;;;;;5092858;28;20193;-74
2021/05/20 11:54:19;;;;;;;1.85;0.70;;;20.90;99.90;;;;;;5092641;28;20208;-74
2021/05/20 11:56:49;;;;;;;1.67;0.80;;;21.10;99.90;;;;;;5092760;28;20263;-74
2021/05/20 11:59:17;;;;;;;1.25;0.75;;;20.80;99.90;;;;;;5080743;28;20242;-74
2021/05/20 12:01:45;;;;;;;2.15;1.23;;;20.80;99.90;;;;;;5090407;28;20575;-74
2021/05/20 12:04:12;;;;;;;1.35;0.95;;;20.90;99.90;;;;;;5092167;28;20947;-73
2021/05/20 12:06:39;;;;;;;10.07;2.72;;;21.10;99.90;;;;;;5092130;28;20270;-73
2021/05/20 12:09:13;;;;;;;1.35;1.02;;;20.90;99.90;;;;;;5092385;28;20210;-74
2021/05/20 12:11:41;;;;;;;3.72;1.40;;;21.00;99.90;;;;;;5092420;28;20201;-75
2021/05/20 12:14:25;;;;;;;1.25;0.80;;;21.00;99.90;;;;;;5091907;28;20205;-74
2021/05/20 12:16:59;;;;;;;1.17;0.75;;;21.10;99.90;;;;;;5092192;28;20288;-74
2021/05/20 12:19:26;;;;;;;1.63;0.98;;;21.20;99.90;;;;;;5092511;28;20243;-74
2021/05/20 12:22:00;;;;;;;0.90;0.82;;;21.10;99.90;;;;;;5091866;28;20684;-73
2021/05/20 12:24:31;;;;;;;2.83;0.60;;;21.00;99.90;;;;;;5092287;28;20240;-74
2021/05/20 12:27:19;;;;;;;2.45;1.17;;;20.90;99.90;;;;;;5091713;28;20201;-74
2021/05/20 12:29:48;;;;;;;1.05;0.80;;;21.10;99.90;;;;;;5090294;28;20205;-72
2021/05/20 12:32:35;;;;;;;0.88;0.50;;;21.10;99.90;;;;;;5091469;28;20209;-72
2021/05/20 12:35:13;;;;;;;3.70;1.20;;;21.10;99.90;;;;;;5091699;28;20683;-75
2021/05/20 12:37:42;;;;;;;0.63;0.50;;;20.70;99.90;;;;;;5075960;28;20665;-75
2021/05/20 12:40:14;;;;;;;2.50;0.85;;;20.90;99.90;;;;;;5083197;28;20237;-73
2021/05/20 12:42:41;;;;;;;1.20;0.82;;;21.60;99.90;;;;;;5089963;28;20262;-71
2021/05/20 12:45:10;;;;;;;1.33;0.73;;;21.40;99.90;;;;;;5091504;28;20205;-75
2021/05/20 12:47:46;;;;;;;2.17;0.70;;;20.90;99.90;;;;;;5091916;28;20213;-73
2021/05/20 12:50:24;;;;;;;2.20;0.90;;;20.80;99.90;;;;;;5091246;28;20600;-74
2021/05/20 12:52:52;;;;;;;2.63;0.70;;;21.00;99.90;;;;;;5091898;28;20292;-78
2021/05/20 12:55:19;;;;;;;1.48;0.70;;;21.40;99.90;;;;;;5092142;28;20205;-73
2021/05/20 12:57:54;;;;;;;3.47;0.75;;;21.30;99.90;;;;;;5091152;28;20210;-76
2021/05/20 13:00:22;;;;;;;0.75;0.60;;;21.30;99.90;;;;;;5064701;28;20719;-75